Time;durP1;ratioP1;P1;durP2;ratioP2;P2;SDS_P1;SDS_P2;PMS_P1;PMS_P2;Temp;Humidity;BMP_temperature;BMP_pressure;BME280_temperature;BME280_humidity;BME280_pressure;Samples;Min_cycle;Max_cycle;Signal;HPM_P1;HPM_P2
2023/11/24 00:00:23;;;;;;;17.20;8.80;;;;;;;-144.73;100.00;86588.81;110238;1264;22395;-53
2023/11/24 00:03:10;;;;;;;14.40;9.00;;;;;;;-144.73;100.00;86602.25;110193;1263;22341;-54
2023/11/24 00:05:56;;;;;;;17.70;8.60;;;;;;;-144.73;100.00;86592.36;110145;1261;22380;-54
2023/11/24 00:08:43;;;;;;;14.90;8.80;;;;;;;-144.73;100.00;86602.65;110153;1264;22096;-54
2023/11/24 00:11:29;;;;;;;14.20;8.90;;;;;;;-144.73;100.00;86602.64;110180;1270;22318;-54
2023/11/24 00:14:15;;;;;;;16.30;8.90;;;;;;;-144.73;100.00;86599.48;110172;1272;22964;-55
2023/11/24 00:17:01;;;;;;;15.60;9.00;;;;;;;-144.73;100.00;86588.02;110084;1264;22309;-56
2023/11/24 00:19:48;;;;;;;14.90;8.90;;;;;;;-144.73;100.00;86603.83;110155;1265;22185;-54
2023/11/24 00:22:34;;;;;;;14.10;8.60;;;;;;;-144.73;100.00;86606.21;110093;1264;22336;-54
2023/11/24 00:25:20;;;;;;;15.70;9.00;;;;;;;-144.73;100.00;86605.02;110188;1263;22179;-54
2023/11/24 00:28:06;;;;;;;15.50;9.60;;;;;;;-144.73;100.00;86601.06;110123;1256;23033;-54
2023/11/24 00:30:54;;;;;;;19.30;9.20;;;;;;;-144.73;100.00;86593.95;110112;1263;23088;-54
2023/11/24 00:33:41;;;;;;;18.90;9.50;;;;;;;-144.73;100.00;86589.60;110084;1264;22330;-54
2023/11/24 00:36:29;;;;;;;18.70;10.10;;;;;;;-144.73;100.00;86596.71;110100;1271;22411;-55
2023/11/24 00:39:17;;;;;;;14.30;8.50;;;;;;;-144.73;100.00;86607.00;110117;1264;22183;-54
2023/11/24 00:42:03;;;;;;;16.90;8.80;;;;;;;-144.73;100.00;86624.40;110105;1264;22202;-53
2023/11/24 00:44:49;;;;;;;16.50;10.10;;;;;;;-144.73;100.00;86600.27;110172;1265;22331;-53
2023/11/24 00:47:35;;;;;;;18.00;10.40;;;;;;;-144.73;100.00;86600.66;110273;1270;22202;-54
2023/11/24 00:50:22;;;;;;;18.70;10.10;;;;;;;-144.73;100.00;86616.48;110262;1262;22316;-53
2023/11/24 00:53:09;;;;;;;16.80;10.10;;;;;;;-144.73;100.00;86607.39;110251;1256;22831;-54
2023/11/24 00:55:56;;;;;;;14.00;8.70;;;;;;;-144.73;100.00;86618.86;110220;1263;22329;-54
2023/11/24 00:58:43;;;;;;;16.40;9.40;;;;;;;-144.73;100.00;86614.52;110210;1263;22373;-53
2023/11/24 01:01:29;;;;;;;18.80;9.90;;;;;;;-144.73;100.00;86607.79;110216;1259;22219;-54
2023/11/24 01:04:16;;;;;;;15.30;9.80;;;;;;;-144.73;100.00;86617.28;110165;1265;22283;-54
2023/11/24 01:07:03;;;;;;;17.40;10.00;;;;;;;-144.73;100.00;86624.01;110229;1264;22319;-54
2023/11/24 01:09:50;;;;;;;16.60;9.40;;;;;;;-144.73;100.00;86611.74;110266;1262;22366;-54
2023/11/24 01:12:38;;;;;;;15.90;9.30;;;;;;;-144.73;100.00;86618.86;110261;1262;23138;-54
2023/11/24 01:15:25;;;;;;;15.10;8.00;;;;;;;-144.73;100.00;86626.38;110201;1260;22356;-53
2023/11/24 01:18:11;;;;;;;21.20;9.50;;;;;;;-144.73;100.00;86617.67;110198;1265;22355;-53
2023/11/24 01:20:58;;;;;;;16.60;9.90;;;;;;;-144.73;100.00;86627.95;110277;1262;22119;-54
2023/11/24 01:23:44;;;;;;;17.00;8.70;;;;;;;-144.73;100.00;86637.05;110267;1264;22321;-54
2023/11/24 01:26:30;;;;;;;16.10;9.20;;;;;;;-144.73;100.00;86623.21;110472;1260;22202;-55
2023/11/24 01:29:18;;;;;;;16.40;9.00;;;;;;;-144.73;100.00;86616.09;110474;1262;22183;-54
2023/11/24 01:32:04;;;;;;;17.30;10.10;;;;;;;-144.73;100.00;86618.86;110474;1262;22337;-55
2023/11/24 01:34:51;;;;;;;16.70;9.50;;;;;;;-144.73;100.00;86617.67;110517;1259;22225;-55
2023/11/24 01:37:37;;;;;;;16.40;9.30;;;;;;;-144.73;100.00;86631.91;110460;1262;22323;-55
2023/11/24 01:40:23;;;;;;;19.00;9.50;;;;;;;-144.73;100.00;86635.08;110548;1262;22403;-56
2023/11/24 01:43:09;;;;;;;16.10;9.30;;;;;;;-144.73;100.00;86631.91;110500;1260;22328;-54
2023/11/24 01:45:55;;;;;;;15.10;9.00;;;;;;;-144.73;100.00;86616.09;110492;1263;22190;-54
2023/11/24 01:48:42;;;;;;;18.60;11.10;;;;;;;-144.73;100.00;86614.91;110412;1262;23013;-54
2023/11/24 01:51:28;;;;;;;22.60;9.70;;;;;;;-144.73;100.00;86616.88;110444;1260;22408;-55
2023/11/24 01:54:18;;;;;;;16.80;9.00;;;;;;;-144.73;100.00;86623.61;110521;1260;22322;-54
2023/11/24 01:57:09;;;;;;;16.70;9.70;;;;;;;-144.73;100.00;86639.83;110396;1267;22762;-54
2023/11/24 01:59:55;;;;;;;15.40;9.10;;;;;;;-144.73;100.00;86637.85;110508;1256;22387;-53
2023/11/24 02:02:41;;;;;;;17.10;9.50;;;;;;;-144.73;100.00;86631.91;110541;1260;22148;-53
2023/11/24 02:05:28;;;;;;;16.10;8.70;;;;;;;-144.73;100.00;86620.84;110453;1260;22935;-53
2023/11/24 02:08:15;;;;;;;17.00;9.70;;;;;;;-144.73;100.00;86626.38;110412;1265;22298;-53
2023/11/24 02:11:02;;;;;;;16.70;9.70;;;;;;;-144.73;100.00;86644.97;110460;1265;22388;-55
2023/11/24 02:13:51;;;;;;;17.50;8.70;;;;;;;-144.73;100.00;86638.64;110489;1262;22883;-53
2023/11/24 02:16:37;;;;;;;15.30;8.30;;;;;;;-144.73;100.00;86632.30;110495;1259;22994;-54
2023/11/24 02:19:24;;;;;;;16.00;8.60;;;;;;;-144.73;100.00;86640.61;110519;1260;22318;-54
2023/11/24 02:22:10;;;;;;;14.20;8.40;;;;;;;-144.73;100.00;86624.40;110478;1262;22330;-54
2023/11/24 02:24:56;;;;;;;15.80;8.60;;;;;;;-144.73;100.00;86630.33;110383;1260;22373;-54
2023/11/24 02:27:43;;;;;;;13.60;8.00;;;;;;;-144.73;100.00;86624.40;110449;1260;23076;-54
2023/11/24 02:30:30;;;;;;;13.80;7.80;;;;;;;-144.73;100.00;86606.21;110409;1262;22372;-53
2023/11/24 02:33:18;;;;;;;16.40;8.60;;;;;;;-144.73;100.00;86611.35;110467;1261;22315;-53
2023/11/24 02:36:08;;;;;;;14.50;7.60;;;;;;;-144.73;100.00;86619.65;110436;1262;22363;-54
2023/11/24 02:38:55;;;;;;;13.70;7.80;;;;;;;-144.73;100.00;86623.61;110407;1267;22369;-54
2023/11/24 02:41:41;;;;;;;15.70;8.30;;;;;;;-144.73;100.00;86610.95;110412;1255;23149;-53
2023/11/24 02:44:28;;;;;;;17.20;8.60;;;;;;;-144.73;100.00;86602.25;110485;1259;22912;-54
2023/11/24 02:47:14;;;;;;;16.50;9.10;;;;;;;-144.73;100.00;86615.30;110537;1258;22306;-53
2023/11/24 02:50:00;;;;;;;13.90;7.80;;;;;;;-144.73;100.00;86594.34;110491;1262;22392;-54
2023/11/24 02:52:46;;;;;;;15.10;8.30;;;;;;;-144.73;100.00;86602.26;110505;1262;22821;-54
2023/11/24 02:55:32;;;;;;;14.20;8.20;;;;;;;-144.73;100.00;86585.64;110554;1261;23146;-55
2023/11/24 02:58:18;;;;;;;13.70;8.20;;;;;;;-144.73;100.00;86584.06;110532;1267;22386;-53
2023/11/24 03:01:07;;;;;;;15.30;8.50;;;;;;;-144.73;100.00;86599.88;110529;1262;22152;-53
2023/11/24 03:03:54;;;;;;;12.80;8.20;;;;;;;-144.73;100.00;86599.09;110519;1260;22313;-52
2023/11/24 03:06:41;;;;;;;13.20;7.50;;;;;;;-144.73;100.00;86599.48;110572;1259;22316;-53
2023/11/24 03:09:28;;;;;;;13.50;7.50;;;;;;;-144.73;100.00;86591.58;110564;1262;22130;-53
2023/11/24 03:12:16;;;;;;;14.30;8.10;;;;;;;-144.73;100.00;86587.22;110548;1257;22224;-53
2023/11/24 03:15:03;;;;;;;13.30;7.50;;;;;;;-144.73;100.00;86565.08;110540;1252;22364;-52
2023/11/24 03:17:50;;;;;;;13.90;7.80;;;;;;;-144.73;100.00;86585.23;110530;1259;22236;-52
2023/11/24 03:20:37;;;;;;;14.30;8.80;;;;;;;-144.73;100.00;86574.17;110557;1260;22314;-52
2023/11/24 03:23:23;;;;;;;15.20;8.80;;;;;;;-144.73;100.00;86592.77;110514;1260;22311;-53
2023/11/24 03:26:10;;;;;;;15.30;8.70;;;;;;;-144.73;100.00;86574.17;110567;1262;22360;-53
2023/11/24 03:28:56;;;;;;;14.30;7.70;;;;;;;-144.73;100.00;86582.08;110621;1257;22164;-54
2023/11/24 03:31:42;;;;;;;15.30;7.90;;;;;;;-144.73;100.00;86576.94;110546;1269;22125;-53
2023/11/24 03:34:28;;;;;;;13.20;7.30;;;;;;;-144.73;100.00;86572.19;110711;1265;22338;-53
2023/11/24 03:37:16;;;;;;;13.10;7.90;;;;;;;-144.73;100.00;86572.98;110565;1273;22158;-53
2023/11/24 03:40:02;;;;;;;15.90;7.70;;;;;;;-144.73;100.00;86574.17;110605;1268;22165;-53
2023/11/24 03:42:48;;;;;;;14.90;6.90;;;;;;;-144.73;100.00;86565.08;110578;1256;22367;-53
2023/11/24 03:45:35;;;;;;;13.30;7.40;;;;;;;-144.73;100.00;86558.35;110564;1252;22134;-53
2023/11/24 03:48:21;;;;;;;13.00;6.60;;;;;;;-144.73;100.00;86578.13;110572;1256;22145;-53
2023/11/24 03:51:08;;;;;;;11.00;6.90;;;;;;;-144.73;100.00;86558.74;110561;1258;23001;-52
2023/11/24 03:53:54;;;;;;;12.50;6.80;;;;;;;-144.73;100.00;86572.20;110694;1266;22343;-53
2023/11/24 03:56:40;;;;;;;11.30;6.90;;;;;;;-144.73;100.00;86563.09;110631;1271;22106;-53
2023/11/24 03:59:26;;;;;;;12.90;6.50;;;;;;;-144.73;100.00;86565.08;110540;1268;22372;-53
2023/11/24 04:02:13;;;;;;;10.90;7.10;;;;;;;-144.73;100.00;86554.79;110571;1267;22353;-53
2023/11/24 04:04:59;;;;;;;13.00;7.10;;;;;;;-144.73;100.00;86545.70;110484;1269;22908;-53
2023/11/24 04:07:46;;;;;;;13.10;6.60;;;;;;;-144.73;100.00;86560.33;110545;1273;22196;-53
2023/11/24 04:10:32;;;;;;;13.00;7.50;;;;;;;-144.73;100.00;86548.86;110633;1268;22338;-53
2023/11/24 04:13:18;;;;;;;13.00;6.10;;;;;;;-144.73;100.00;86553.21;110633;1268;22299;-54
2023/11/24 04:16:06;;;;;;;9.70;6.20;;;;;;;-144.73;100.00;86548.86;110514;1273;22131;-53
2023/11/24 04:18:53;;;;;;;13.00;6.70;;;;;;;-144.73;100.00;86544.52;110599;1258;22159;-53
2023/11/24 04:21:40;;;;;;;11.00;6.30;;;;;;;-144.73;100.00;86555.98;110568;1258;22167;-53
2023/11/24 04:24:26;;;;;;;9.30;5.60;;;;;;;-144.73;100.00;86554.39;110543;1268;22301;-53
2023/11/24 04:27:14;;;;;;;11.70;6.60;;;;;;;-144.73;100.00;86535.81;110561;1268;22112;-53
2023/11/24 04:30:01;;;;;;;9.90;6.00;;;;;;;-144.73;100.00;86533.44;110592;1273;22140;-53
2023/11/24 04:32:46;;;;;;;10.30;5.90;;;;;;;-144.73;100.00;86538.58;110611;1273;22137;-54
2023/11/24 04:35:33;;;;;;;9.90;5.50;;;;;;;-144.73;100.00;86535.02;110621;1266;22339;-53
2023/11/24 04:38:19;;;;;;;11.80;6.10;;;;;;;-144.73;100.00;86535.81;110617;1266;22324;-53
2023/11/24 04:41:06;;;;;;;8.70;5.50;;;;;;;-144.73;100.00;86529.48;110604;1259;23059;-53
2023/11/24 04:43:53;;;;;;;9.20;5.20;;;;;;;-144.73;100.00;86516.83;110648;1266;22111;-53
2023/11/24 04:46:39;;;;;;;9.10;5.90;;;;;;;-144.73;100.00;86519.20;110806;1267;22334;-53
2023/11/24 04:49:25;;;;;;;9.30;5.40;;;;;;;-144.73;100.00;86510.10;110566;1274;22750;-53
2023/11/24 04:52:13;;;;;;;9.60;5.60;;;;;;;-144.73;100.00;86520.39;110581;1275;22114;-53
2023/11/24 04:54:59;;;;;;;12.10;6.00;;;;;;;-144.73;100.00;86520.78;110609;1275;22230;-53
2023/11/24 04:57:49;;;;;;;10.10;5.90;;;;;;;-144.73;100.00;86511.69;110628;1275;22117;-53
2023/11/24 05:00:36;;;;;;;15.00;6.60;;;;;;;-144.73;100.00;86525.13;110590;1274;22116;-52
2023/11/24 05:03:22;;;;;;;11.00;6.20;;;;;;;-144.73;100.00;86513.27;110625;1273;22303;-53
2023/11/24 05:06:08;;;;;;;9.30;5.90;;;;;;;-144.73;100.00;86518.80;110616;1274;22118;-53
2023/11/24 05:08:54;;;;;;;9.90;6.20;;;;;;;-144.73;100.00;86515.24;110587;1273;22233;-53
2023/11/24 05:11:40;;;;;;;9.20;6.20;;;;;;;-144.73;100.00;86512.48;110572;1273;22123;-52
2023/11/24 05:14:27;;;;;;;10.60;6.20;;;;;;;-144.73;100.00;86490.73;110579;1273;22819;-53
2023/11/24 05:17:13;;;;;;;9.60;6.30;;;;;;;-144.73;100.00;86505.36;110943;1257;22876;-53
2023/11/24 05:19:59;;;;;;;11.60;6.50;;;;;;;-144.73;100.00;86506.54;110675;1268;22138;-53
2023/11/24 05:22:45;;;;;;;9.10;6.10;;;;;;;-144.73;100.00;86506.94;110655;1268;22129;-53
2023/11/24 05:25:32;;;;;;;10.10;6.10;;;;;;;-144.73;100.00;86496.26;110598;1271;22188;-52
2023/11/24 05:28:18;;;;;;;13.90;7.20;;;;;;;-144.73;100.00;86497.05;110555;1273;22154;-52
2023/11/24 05:31:05;;;;;;;12.40;6.90;;;;;;;-144.73;100.00;86503.38;110577;1274;22335;-53
2023/11/24 05:33:51;;;;;;;9.70;6.30;;;;;;;-144.73;100.00;86495.08;110638;1257;22974;-53
2023/11/24 05:36:38;;;;;;;13.90;7.30;;;;;;;-144.73;100.00;86505.36;110616;1266;22359;-53
2023/11/24 05:39:24;;;;;;;10.30;6.80;;;;;;;-144.73;100.00;86500.61;110682;1266;22116;-53
2023/11/24 05:42:10;;;;;;;12.70;7.10;;;;;;;-144.73;100.00;86505.75;110646;1257;22143;-53
2023/11/24 05:44:55;;;;;;;11.30;6.70;;;;;;;-144.73;100.00;86518.02;110650;1268;22159;-53
2023/11/24 05:47:42;;;;;;;12.40;7.00;;;;;;;-144.73;100.00;86486.77;110604;1271;22878;-53
2023/11/24 05:50:29;;;;;;;10.70;7.00;;;;;;;-144.73;100.00;86515.64;110609;1273;22301;-53
2023/11/24 05:53:15;;;;;;;9.80;6.50;;;;;;;-144.73;100.00;86492.30;110618;1266;23050;-54
2023/11/24 05:56:07;;;;;;;13.10;6.50;;;;;;;-144.73;100.00;86496.27;110679;1267;22133;-53
2023/11/24 05:58:54;;;;;;;10.50;6.30;;;;;;;-144.73;100.00;86503.38;110569;1269;22138;-53
2023/11/24 06:01:42;;;;;;;10.90;6.60;;;;;;;-144.73;100.00;86493.48;110565;1269;22371;-53
2023/11/24 06:04:28;;;;;;;10.90;6.60;;;;;;;-144.73;100.00;86508.91;110598;1274;22122;-53
2023/11/24 06:07:15;;;;;;;10.30;6.30;;;;;;;-144.73;100.00;86496.27;110682;1266;22125;-53
2023/11/24 06:10:02;;;;;;;9.70;6.00;;;;;;;-144.73;100.00;86487.56;110609;1255;22301;-53
2023/11/24 06:12:48;;;;;;;9.90;6.30;;;;;;;-144.73;100.00;86482.81;110733;1268;22117;-53
2023/11/24 06:15:34;;;;;;;9.80;6.10;;;;;;;-144.73;100.00;86485.58;110580;1270;22122;-52
2023/11/24 06:18:20;;;;;;;10.40;6.20;;;;;;;-144.73;100.00;86484.40;110565;1273;22983;-53
2023/11/24 06:21:10;;;;;;;10.50;6.30;;;;;;;-144.73;100.00;86468.18;110661;1250;22372;-53
2023/11/24 06:23:57;;;;;;;11.90;6.50;;;;;;;-144.73;100.00;86462.25;110558;1271;22103;-52
2023/11/24 06:26:43;;;;;;;13.20;7.30;;;;;;;-144.73;100.00;86454.73;110668;1268;22139;-53
2023/11/24 06:29:29;;;;;;;11.20;7.10;;;;;;;-144.73;100.00;86454.73;110559;1252;22129;-53
2023/11/24 06:32:15;;;;;;;10.30;6.40;;;;;;;-144.73;100.00;86457.11;110584;1254;22963;-53
2023/11/24 06:35:06;;;;;;;13.30;6.70;;;;;;;-144.73;100.00;86454.34;110595;1270;22141;-53
2023/11/24 06:37:52;;;;;;;10.60;6.00;;;;;;;-144.73;100.00;86449.20;110553;1264;23044;-53
2023/11/24 06:40:38;;;;;;;10.40;5.90;;;;;;;-144.73;100.00;86441.69;110624;1257;22144;-53
2023/11/24 06:43:24;;;;;;;11.10;5.90;;;;;;;-144.73;100.00;86434.96;110678;1266;22316;-54
2023/11/24 06:46:12;;;;;;;8.40;5.30;;;;;;;-144.73;100.00;86420.33;110581;1270;22452;-53
2023/11/24 06:48:59;;;;;;;10.50;5.90;;;;;;;-144.73;100.00;86443.66;110571;1272;22346;-53
2023/11/24 06:51:48;;;;;;;9.60;6.10;;;;;;;-144.73;100.00;86430.21;110577;1272;22129;-56
2023/11/24 06:54:34;;;;;;;11.10;4.90;;;;;;;-144.73;100.00;86427.05;110623;1273;23258;-52
2023/11/24 06:57:21;;;;;;;7.30;4.90;;;;;;;-144.73;100.00;86440.50;110659;1268;22134;-53
2023/11/24 07:00:16;;;;;;;9.90;5.00;;;;;;;-144.73;100.00;86426.66;110612;1273;22129;-53
2023/11/24 07:03:02;;;;;;;9.70;5.50;;;;;;;-144.73;100.00;86430.61;110569;1272;22321;-53
2023/11/24 07:05:48;;;;;;;9.30;5.90;;;;;;;-144.73;100.00;86431.00;110768;1266;22216;-53
2023/11/24 07:08:35;;;;;;;9.20;5.60;;;;;;;-144.73;100.00;86429.02;110584;1271;22137;-52
2023/11/24 07:11:22;;;;;;;11.70;5.90;;;;;;;-144.73;100.00;86419.14;110554;1273;23592;-53
2023/11/24 07:14:08;;;;;;;10.20;5.30;;;;;;;-144.73;100.00;86426.27;110584;1273;22987;-53
2023/11/24 07:16:55;;;;;;;8.60;4.90;;;;;;;-144.73;100.00;86412.82;110576;1269;22833;-53
2023/11/24 07:19:41;;;;;;;10.30;5.30;;;;;;;-144.73;99.96;86407.67;110567;1259;23227;-53
2023/11/24 07:22:29;;;;;;;10.00;5.50;;;;;;;-144.73;99.93;86375.64;110681;1268;23099;-53
2023/11/24 07:25:16;;;;;;;8.20;5.00;;;;;;;-144.73;99.39;86387.11;110604;1273;22357;-53
2023/11/24 07:28:04;;;;;;;8.60;5.50;;;;;;;-144.73;99.17;86386.31;110662;1258;22125;-53
2023/11/24 07:30:51;;;;;;;7.90;4.70;;;;;;;-144.73;98.88;86385.13;110571;1266;22369;-53
2023/11/24 07:33:37;;;;;;;6.60;4.10;;;;;;;-144.73;98.64;86388.30;110610;1271;22771;-53
2023/11/24 07:36:23;;;;;;;7.70;4.30;;;;;;;-144.73;98.71;86383.55;110606;1271;22107;-53
2023/11/24 07:39:10;;;;;;;8.80;5.00;;;;;;;-144.73;98.87;86387.51;110619;1273;22382;-53
2023/11/24 07:42:00;;;;;;;8.00;5.10;;;;;;;-144.73;98.62;86382.36;110670;1268;22125;-53
2023/11/24 07:44:46;;;;;;;8.40;4.00;;;;;;;-144.73;98.34;86367.73;110572;1273;22151;-53
2023/11/24 07:47:32;;;;;;;8.20;4.30;;;;;;;-144.73;98.20;86388.70;110577;1271;22312;-53
2023/11/24 07:50:19;;;;;;;7.50;4.10;;;;;;;-144.73;98.18;86395.41;110748;1257;23075;-53
2023/11/24 07:53:05;;;;;;;9.10;4.40;;;;;;;-144.73;98.34;86402.93;110602;1268;22846;-53
2023/11/24 07:55:52;;;;;;;6.40;3.70;;;;;;;-144.73;98.51;86404.52;110593;1266;22125;-53
2023/11/24 07:58:39;;;;;;;9.90;4.30;;;;;;;-144.73;98.64;86396.60;110437;1259;23080;-53
2023/11/24 08:01:25;;;;;;;6.90;4.00;;;;;;;-144.73;98.58;86394.63;110505;1265;22376;-55
2023/11/24 08:04:12;;;;;;;6.70;4.00;;;;;;;-144.73;98.79;86406.89;110516;1265;23239;-54
2023/11/24 08:06:58;;;;;;;6.40;3.60;;;;;;;-144.73;98.81;86406.88;110521;1265;22348;-54
2023/11/24 08:09:45;;;;;;;6.50;3.50;;;;;;;-144.73;99.31;86398.98;110502;1260;22305;-54
2023/11/24 08:12:31;;;;;;;6.80;3.60;;;;;;;-144.73;99.98;86414.40;110545;1264;22319;-54
2023/11/24 08:15:17;;;;;;;7.20;4.20;;;;;;;-144.73;100.00;86415.98;110564;1265;22326;-54
2023/11/24 08:18:04;;;;;;;7.10;3.70;;;;;;;-144.73;100.00;86389.09;110479;1260;22330;-54
2023/11/24 08:20:50;;;;;;;10.50;4.50;;;;;;;-144.73;100.00;86293.78;110554;1271;22325;-53
2023/11/24 08:23:36;;;;;;;8.90;4.20;;;;;;;-144.73;100.00;86183.84;110540;1264;22309;-52
2023/11/24 08:26:22;;;;;;;8.80;4.00;;;;;;;-144.73;100.00;86101.19;110516;1265;22342;-54
2023/11/24 08:29:09;;;;;;;8.40;4.10;;;;;;;-144.73;98.33;86117.02;110554;1260;22422;-53
2023/11/24 08:31:57;;;;;;;6.50;4.10;;;;;;;-144.73;95.91;86149.05;110504;1256;23102;-53
2023/11/24 08:34:44;;;;;;;7.90;3.90;;;;;;;-144.73;95.14;86160.91;110494;1263;22323;-53
2023/11/24 08:37:30;;;;;;;7.70;4.40;;;;;;;-144.73;94.16;86202.42;110590;1262;22919;-53
2023/11/24 08:40:17;;;;;;;8.80;3.70;;;;;;;-144.73;93.79;86177.11;110517;1257;22224;-53
2023/11/24 08:43:04;;;;;;;8.10;3.90;;;;;;;-144.73;93.84;86215.09;110483;1256;22184;-53
2023/11/24 08:45:50;;;;;;;8.40;3.40;;;;;;;-144.73;93.12;86232.08;110525;1265;23153;-53
2023/11/24 08:48:39;;;;;;;6.60;3.40;;;;;;;-144.73;93.06;86246.73;110558;1259;22320;-53
2023/11/24 08:51:26;;;;;;;8.80;3.20;;;;;;;-144.73;93.04;86259.77;110540;1265;22304;-53
2023/11/24 08:54:13;;;;;;;7.30;4.20;;;;;;;-144.73;92.98;86267.67;110527;1261;22386;-53
2023/11/24 08:56:59;;;;;;;7.20;4.20;;;;;;;-144.73;93.11;86275.59;110542;1265;22319;-55
2023/11/24 08:59:45;;;;;;;9.20;4.80;;;;;;;-144.73;93.09;86292.20;110560;1266;22439;-53
2023/11/24 09:02:33;;;;;;;11.70;5.50;;;;;;;-144.73;93.28;86312.36;110485;1261;22330;-54
2023/11/24 09:05:19;;;;;;;11.90;6.00;;;;;;;-144.73;93.72;86319.09;110554;1265;22434;-54
2023/11/24 09:08:06;;;;;;;10.10;5.40;;;;;;;-144.73;94.21;86346.77;110507;1268;22362;-54
2023/11/24 09:10:52;;;;;;;8.40;4.30;;;;;;;-144.73;94.53;86355.08;110574;1264;23007;-53
2023/11/24 09:13:39;;;;;;;12.00;4.80;;;;;;;-144.73;94.96;86355.48;110546;1257;22408;-53
2023/11/24 09:16:25;;;;;;;9.50;4.30;;;;;;;-144.73;95.29;86353.89;110582;1259;23007;-53
2023/11/24 09:19:12;;;;;;;9.40;4.70;;;;;;;-144.73;95.63;86383.16;110556;1271;22417;-53
2023/11/24 09:22:00;;;;;;;8.70;4.30;;;;;;;-144.73;95.86;86379.60;110587;1259;22368;-54
2023/11/24 09:24:46;;;;;;;8.40;4.50;;;;;;;-144.73;95.99;86391.85;110561;1266;22317;-53
2023/11/24 09:27:34;;;;;;;37.40;5.50;;;;;;;-144.73;95.96;86387.11;110616;1266;22194;-53
2023/11/24 09:30:21;;;;;;;7.30;4.00;;;;;;;-144.73;96.01;86392.25;110588;1257;22201;-53
2023/11/24 09:33:08;;;;;;;7.80;3.40;;;;;;;-144.73;95.65;86396.60;110426;1272;22329;-53
2023/11/24 09:35:55;;;;;;;9.10;3.90;;;;;;;-144.73;95.60;86391.46;110551;1263;22343;-53
2023/11/24 09:38:44;;;;;;;7.70;2.80;;;;;;;-144.73;94.65;86379.59;110518;1266;22397;-53
2023/11/24 09:41:37;;;;;;;5.80;3.00;;;;;;;-144.73;93.57;86355.86;110498;1267;22397;-53
2023/11/24 09:44:23;;;;;;;5.70;2.60;;;;;;;-144.73;93.32;86350.33;110510;1269;22341;-52
2023/11/24 09:47:12;;;;;;;6.30;3.30;;;;;;;-144.73;93.09;86363.38;110506;1269;22984;-53
2023/11/24 09:50:01;;;;;;;5.40;3.00;;;;;;;-144.73;92.93;86349.15;110472;1272;22735;-54
2023/11/24 09:52:49;;;;;;;6.40;3.10;;;;;;;-144.73;92.71;86341.64;110517;1270;22372;-53
2023/11/24 09:55:36;;;;;;;4.40;2.40;;;;;;;-144.73;92.52;86284.68;110521;1266;22803;-53
2023/11/24 09:58:23;;;;;;;7.30;2.60;;;;;;;-144.73;91.88;86309.60;110506;1265;22373;-53
2023/11/24 10:01:15;;;;;;;6.10;2.70;;;;;;;-144.73;90.81;86283.90;110412;1272;197177;-53
2023/11/24 10:04:03;;;;;;;5.50;2.40;;;;;;;-144.73;90.36;86304.06;110539;1266;22806;-53
2023/11/24 10:06:52;;;;;;;4.40;2.10;;;;;;;-144.73;89.42;86267.27;110497;1257;22211;-54
2023/11/24 10:09:38;;;;;;;5.90;2.20;;;;;;;-144.73;88.57;86247.52;110498;1266;22318;-53
2023/11/24 10:12:25;;;;;;;4.50;2.10;;;;;;;-144.73;87.56;86212.71;110487;1263;22317;-53
2023/11/24 10:15:12;;;;;;;6.20;2.00;;;;;;;-144.73;86.69;86268.86;110556;1263;22348;-54
2023/11/24 10:17:58;;;;;;;6.80;2.30;;;;;;;-144.73;86.55;86296.95;110547;1263;22972;-53
2023/11/24 10:20:49;;;;;;;4.50;2.50;;;;;;;-144.73;86.69;86305.25;110487;1265;22349;-53
2023/11/24 10:23:35;;;;;;;8.10;2.30;;;;;;;-144.73;86.64;86314.73;110557;1267;22187;-55
2023/11/24 10:26:22;;;;;;;3.60;2.00;;;;;;;-144.73;86.44;86273.61;110515;1256;22341;-53
2023/11/24 10:29:09;;;;;;;5.70;2.00;;;;;;;-144.73;86.67;86303.27;110519;1256;22257;-54
2023/11/24 10:31:56;;;;;;;4.60;1.70;;;;;;;-144.73;86.24;86275.98;110610;1254;22105;-54
2023/11/24 10:34:44;;;;;;;3.10;1.60;;;;;;;-144.73;85.14;86251.86;110567;1270;22212;-54
2023/11/24 10:37:33;;;;;;;5.10;1.90;;;;;;;-144.73;84.59;86209.15;110490;1266;22228;-53
2023/11/24 10:40:20;;;;;;;4.00;1.90;;;;;;;-144.73;83.98;86209.95;110507;1267;22376;-55
2023/11/24 10:43:07;;;;;;;2.90;1.50;;;;;;;-144.73;83.09;86167.23;110497;1273;22194;-53
2023/11/24 10:45:56;;;;;;;3.60;1.60;;;;;;;-144.73;81.59;86168.02;110505;1257;22318;-53
2023/11/24 10:49:29;;;;;;;6.90;2.60;;;;;;;-144.73;80.98;86183.05;110553;1257;22185;-55
2023/11/24 10:52:22;;;;;;;4.70;2.30;;;;;;;-144.73;79.60;86205.59;110000;1274;22433;-55
2023/11/24 10:55:13;;;;;;;4.80;1.90;;;;;;;-144.73;79.40;86242.37;109983;1261;22574;-54
2023/11/24 10:58:02;;;;;;;5.90;2.00;;;;;;;-144.73;79.85;86236.83;109945;1276;22210;-55
2023/11/24 11:00:49;;;;;;;6.20;2.50;;;;;;;-144.73;80.23;86271.64;110036;1273;22818;-55
2023/11/24 11:03:36;;;;;;;7.00;3.60;;;;;;;-144.73;80.85;86276.38;110000;1273;22226;-55
2023/11/24 11:06:48;;;;;;;7.70;3.10;;;;;;;-144.73;80.88;86289.83;110031;1261;22232;-54
2023/11/24 11:09:58;;;;;;;6.90;3.10;;;;;;;-144.73;82.02;86308.02;109972;1269;22856;-55
2023/11/24 11:12:51;;;;;;;6.70;2.70;;;;;;;-144.73;83.02;86347.16;110038;1266;23021;-54
2023/11/24 11:15:38;;;;;;;6.70;2.40;;;;;;;-144.73;84.28;86396.20;109966;1273;22222;-55
2023/11/24 11:18:25;;;;;;;5.30;2.40;;;;;;;-144.73;86.43;86410.05;110047;1273;22233;-55
2023/11/24 11:21:30;;;;;;;5.60;2.30;;;;;;;-144.73;90.22;86481.23;110028;1263;22343;-55
2023/11/24 11:24:28;;;;;;;8.90;3.50;;;;;;;-144.73;94.23;86542.54;110018;1258;22240;-55
2023/11/24 11:27:26;;;;;;;7.60;2.30;;;;;;;-144.73;97.43;86560.33;110029;1270;22960;-54
2023/11/24 11:30:26;;;;;;;11.00;3.80;;;;;;;-144.73;98.96;86546.48;110531;1260;22336;-55
2023/11/24 11:33:13;;;;;;;11.20;3.20;;;;;;;-144.73;99.93;86556.37;110535;1261;23710;-56
2023/11/24 11:36:07;;;;;;;8.80;3.60;;;;;;;-144.73;100.00;86580.50;110503;1258;22231;-55
2023/11/24 11:38:53;;;;;;;8.60;3.30;;;;;;;-144.73;100.00;86604.63;110557;1261;22351;-55
2023/11/24 11:41:45;;;;;;;6.80;2.80;;;;;;;-144.73;100.00;86607.00;110551;1260;22493;-57
2023/11/24 11:44:36;;;;;;;7.30;3.00;;;;;;;-144.73;100.00;86607.39;110530;1261;22457;-55
2023/11/24 11:47:26;;;;;;;6.40;2.60;;;;;;;-144.73;100.00;86634.29;110552;1267;22325;-56
2023/11/24 11:50:24;;;;;;;8.70;2.60;;;;;;;-144.73;100.00;86624.40;110577;1263;23376;-55
2023/11/24 11:53:12;;;;;;;8.90;2.90;;;;;;;-144.73;100.00;86552.02;110456;1264;22289;-55
2023/11/24 11:56:01;;;;;;;5.90;2.10;;;;;;;-144.73;100.00;86497.85;110531;1260;22207;-54
2023/11/24 11:58:48;;;;;;;7.40;2.50;;;;;;;-144.73;100.00;86449.20;110505;1267;22164;-55
2023/11/24 12:01:35;;;;;;;3.50;1.60;;;;;;;-144.73;100.00;86421.13;110583;1260;22330;-55
2023/11/24 12:04:22;;;;;;;7.10;2.10;;;;;;;-144.73;99.44;86385.53;110498;1267;22908;-55
2023/11/24 12:07:10;;;;;;;5.80;1.80;;;;;;;-144.73;97.06;86371.29;110554;1269;22290;-57
2023/11/24 12:09:57;;;;;;;4.90;2.20;;;;;;;-144.73;92.83;86364.97;110463;1260;22341;-54
2023/11/24 12:12:45;;;;;;;5.30;1.80;;;;;;;-144.73;92.67;86366.55;110531;1267;22984;-54
2023/11/24 12:15:34;;;;;;;4.80;1.90;;;;;;;-144.73;90.82;86342.82;110513;1260;22319;-55
2023/11/24 12:18:21;;;;;;;9.20;2.90;;;;;;;-144.73;87.87;86327.80;110619;1260;22992;-55
2023/11/24 12:21:07;;;;;;;9.00;3.50;;;;;;;-144.73;87.48;86347.96;110517;1267;22197;-56
2023/11/24 12:23:54;;;;;;;8.50;4.00;;;;;;;-144.73;85.07;86324.23;110542;1254;22212;-54
2023/11/24 12:27:01;;;;;;;6.60;2.60;;;;;;;-144.73;82.28;86355.08;110514;1262;22189;-56
2023/11/24 12:29:51;;;;;;;7.70;2.70;;;;;;;-144.73;81.24;86336.89;110521;1256;22210;-60